Senyomaru — JI3557 — position and weather

sailwx.info

Track history (hours):
 
Tides and Currents Weather Stations Pressure Air Temp Water Temp Dewpoint Dewpoint Depression Visibility Wind Speed Wind Dir Waves Ship Positions

Senyomaru

Last reported at 2017-Feb-25 19:16 UTC. Time now 2017-Feb-26 06:09 UTC.
Position N 33°58' E 132°44'.

Length 69 m; draft 4 m.

Type: Tanker. MMSI: 431300188.

Date/timePositionNaut miles runAvg speedWind from/ knotsBaromVisibWave heightAir tempDewpointWater temp
2017-Feb-25 19:16N 33°58' E 132°44'810.7
2017-Feb-25 18:33N 33°54' E 132°37'1111.3
2017-Feb-25 17:32N 33°50' E 132°24'  
2017-Feb-22 13:27N 33°57' E 132°10'  
2017-Feb-19 21:31N 33°52' E 131°53'1410.2
2017-Feb-19 20:07N 33°49' E 132°09'711.8
2017-Feb-19 19:33N 33°50' E 132°17'1111.3
2017-Feb-19 18:33N 33°53' E 132°31'1110.9
2017-Feb-19 17:33N 33°58' E 132°42'11511.1
2017-Feb-19 07:08N 34°36' E 134°54'711.5
2017-Feb-19 06:32N 34°37' E 135°03'1212.0
2017-Feb-19 05:33N 34°35' E 135°17'8 1.2
2017-Feb-18 23:03N 34°33' E 135°26'2 4.8
2017-Feb-18 22:33N 34°34' E 135°23'0 0.0
2017-Feb-18 18:27N 34°34' E 135°23'0 0.0
2017-Feb-18 17:27N 34°34' E 135°23'0 0.0
2017-Feb-18 16:33N 34°34' E 135°23'0 0.1
2017-Feb-18 15:33N 34°34' E 135°23'0 0.0
2017-Feb-18 12:09N 34°34' E 135°23'0 0.0
2017-Feb-18 10:33N 34°34' E 135°23'0 0.0
2017-Feb-18 08:33N 34°34' E 135°23'0 0.0
2017-Feb-18 07:27N 34°34' E 135°23'0 0.0
2017-Feb-18 06:33N 34°34' E 135°23'0 0.0
2017-Feb-18 03:27N 34°34' E 135°23'0 0.1
2017-Feb-17 21:33N 34°34' E 135°23'1111.1
2017-Feb-17 20:33N 34°34' E 135°09'1211.9
2017-Feb-17 19:33N 34°35' E 134°55'12111.0
2017-Feb-17 08:33N 34°03' E 132°34'6 0.4
2017-Feb-16 19:19N 34°05' E 132°27'12611.4
2017-Feb-16 08:16N 34°36' E 134°55'7 9.1
2017-Feb-16 07:33N 34°37' E 135°03'1111.7
2017-Feb-16 06:34N 34°35' E 135°17'8 7.7
2017-Feb-16 05:34N 34°33' E 135°26'0 0.0
2017-Feb-16 04:31N 34°33' E 135°26'0 0.0
2017-Feb-16 03:30N 34°33' E 135°26'0 0.0
2017-Feb-16 02:33N 34°33' E 135°26'0 0.0
2017-Feb-16 01:32N 34°33' E 135°26'1 1.4
2017-Feb-16 00:31N 34°33' E 135°24'1 1.0
2017-Feb-15 23:33N 34°34' E 135°23'0 0.0
2017-Feb-15 22:23N 34°34' E 135°23'0 0.0
2017-Feb-15 21:32N 34°34' E 135°23'0 0.0
2017-Feb-15 20:32N 34°34' E 135°23'0 0.0
2017-Feb-15 19:34N 34°34' E 135°23'  
Track history (hours):
 
Tides and Currents Weather Stations Pressure Air Temp Water Temp Dewpoint Dewpoint Depression Visibility Wind Speed Wind Dir Waves Ship Positions

Senyomaru

Last reported at 2017-Feb-25 19:16 UTC. Time now 2017-Feb-26 06:09 UTC.
Position N 33°58' E 132°44'.

Length 69 m; draft 4 m.

Type: Tanker. MMSI: 431300188.

Date/timePositionNaut miles runAvg speedWind from/ knotsBaromVisibWave heightAir tempDewpointWater temp
2017-Feb-25 19:16N 33°58' E 132°44'810.7
2017-Feb-25 18:33N 33°54' E 132°37'1111.3
2017-Feb-25 17:32N 33°50' E 132°24'  
2017-Feb-22 13:27N 33°57' E 132°10'  
2017-Feb-19 21:31N 33°52' E 131°53'1410.2
2017-Feb-19 20:07N 33°49' E 132°09'711.8
2017-Feb-19 19:33N 33°50' E 132°17'1111.3
2017-Feb-19 18:33N 33°53' E 132°31'1110.9
2017-Feb-19 17:33N 33°58' E 132°42'11511.1
2017-Feb-19 07:08N 34°36' E 134°54'711.5
2017-Feb-19 06:32N 34°37' E 135°03'1212.0
2017-Feb-19 05:33N 34°35' E 135°17'8 1.2
2017-Feb-18 23:03N 34°33' E 135°26'2 4.8
2017-Feb-18 22:33N 34°34' E 135°23'0 0.0
2017-Feb-18 18:27N 34°34' E 135°23'0 0.0
2017-Feb-18 17:27N 34°34' E 135°23'0 0.0
2017-Feb-18 16:33N 34°34' E 135°23'0 0.1
2017-Feb-18 15:33N 34°34' E 135°23'0 0.0
2017-Feb-18 12:09N 34°34' E 135°23'0 0.0
2017-Feb-18 10:33N 34°34' E 135°23'0 0.0
2017-Feb-18 08:33N 34°34' E 135°23'0 0.0
2017-Feb-18 07:27N 34°34' E 135°23'0 0.0
2017-Feb-18 06:33N 34°34' E 135°23'0 0.0
2017-Feb-18 03:27N 34°34' E 135°23'0 0.1
2017-Feb-17 21:33N 34°34' E 135°23'1111.1
2017-Feb-17 20:33N 34°34' E 135°09'1211.9
2017-Feb-17 19:33N 34°35' E 134°55'12111.0
2017-Feb-17 08:33N 34°03' E 132°34'6 0.4
2017-Feb-16 19:19N 34°05' E 132°27'12611.4
2017-Feb-16 08:16N 34°36' E 134°55'7 9.1
2017-Feb-16 07:33N 34°37' E 135°03'1111.7
2017-Feb-16 06:34N 34°35' E 135°17'8 7.7
2017-Feb-16 05:34N 34°33' E 135°26'0 0.0
2017-Feb-16 04:31N 34°33' E 135°26'0 0.0
2017-Feb-16 03:30N 34°33' E 135°26'0 0.0
2017-Feb-16 02:33N 34°33' E 135°26'0 0.0
2017-Feb-16 01:32N 34°33' E 135°26'1 1.4
2017-Feb-16 00:31N 34°33' E 135°24'1 1.0
2017-Feb-15 23:33N 34°34' E 135°23'0 0.0
2017-Feb-15 22:23N 34°34' E 135°23'0 0.0
2017-Feb-15 21:32N 34°34' E 135°23'0 0.0
2017-Feb-15 20:32N 34°34' E 135°23'0 0.0
2017-Feb-15 19:34N 34°34' E 135°23'  

Dump ship's entire track history